This is the latest recevied weather packets stored in our database for station/object WQ5C-13. If no packets are shown the sender has not sent any weather packets the latest 10 day(s).
| Time | Temp. | Humidity | Pressure | Rain* | Wind** | Luminosity | Snow |
|---|---|---|---|---|---|---|---|
| 1777600216 | 20° C | 84% | 1010.5 hPa | 0 mm | - | - | - |
| 1777599635 | 20° C | 84% | 1010.7 hPa | 0 mm | - | - | - |
| 1777597215 | 20.56° C | 81% | 1010.6 hPa | 0 mm | - | - | - |
| 1777594815 | 21.11° C | 79% | 1009.9 hPa | 0 mm | - | - | - |
| 1777590615 | 21.67° C | 76% | 1009.8 hPa | 0 mm | - | - | - |
| 1777588215 | 21.67° C | 74% | 1009.7 hPa | 0 mm | - | - | - |
| 1777572616 | 19.44° C | 84% | 1011.7 hPa | 0 mm | - | - | - |
| 1777570815 | 20.56° C | 82% | 1011.8 hPa | 0 mm | - | - | - |
| 1777569015 | 20.56° C | 82% | 1012.7 hPa | 0 mm | - | - | - |
| 1777564815 | 17.22° C | 91% | 1013.1 hPa | 0 mm | - | - | - |
| 1777560615 | 17.78° C | 91% | 1012.6 hPa | 0 mm | - | - | - |
| 1777557635 | 17.22° C | 94% | 1012.2 hPa | 0 mm | - | - | - |
| 1777555215 | 16.67° C | 96% | 1012.3 hPa | 0 mm | - | - | - |
| 1777552816 | 16.11° C | 97% | 1012 hPa | 0 mm | - | - | - |
| 1777552215 | 15.56° C | 97% | 1011.8 hPa | 0 mm | - | - | - |
| 1777551636 | 15.56° C | 97% | 1011.6 hPa | 0 mm | - | - | - |
| 1777551016 | 15.56° C | 97% | 1011.5 hPa | 0 mm | - | - | - |
| 1777548015 | 15.56° C | 98% | 1011.3 hPa | 0 mm | - | - | - |
| 1777547416 | 15.56° C | 98% | 1011.4 hPa | 0 mm | - | - | - |
| 1777545636 | 15.56° C | 98% | 1011 hPa | 0 mm | - | - | - |
| 1777542015 | 16.11° C | 95% | 1011.2 hPa | 0 mm | - | - | - |
| 1777533615 | 16.67° C | 92% | 1012.7 hPa | 0 mm | - | - | - |
| 1777531215 | 16.67° C | 92% | 1012.6 hPa | 0 mm | - | - | - |
| 1777526415 | 17.22° C | 90% | 1013.1 hPa | 0 mm | - | - | - |
| 1777525216 | 17.22° C | 90% | 1012.9 hPa | 0 mm | - | - | - |
* Rain latest hour (hover to see other rain measurements)
** Current wind speed in m/s (hover to see current wind gust speed)